Time;durP1;ratioP1;P1;durP2;ratioP2;P2;SDS_P1;SDS_P2;PMS_P1;PMS_P2;Temp;Humidity;BMP_temperature;BMP_pressure;BME280_temperature;BME280_humidity;BME280_pressure;Samples;Min_cycle;Max_cycle;Signal;HPM_P1;HPM_P2
2022/05/19 00:03:07;;;;;;;8.00;3.35;;;308.00;2201.60;;;;;;5158873;27;20021;-85
2022/05/19 00:22:32;;;;;;;7.80;3.00;;;307.50;2252.80;;;;;;5094648;28;20502;-85
2022/05/19 00:35:44;;;;;;;6.28;2.97;;;307.50;2304.00;;;;;;5093790;28;20153;-81
2022/05/19 00:38:26;;;;;;;7.88;2.78;;;307.80;2278.40;;;;;;5060689;28;20032;-84
2022/05/19 00:41:25;;;;;;;9.80;3.20;;;307.80;2278.40;;;;;;5157244;27;20053;-82
2022/05/19 00:44:22;;;;;;;8.02;3.20;;;307.80;2278.40;;;;;;5138755;27;20489;-83
2022/05/19 00:46:58;;;;;;;7.63;3.42;;;307.80;2278.40;;;;;;5130759;27;20038;-81
2022/05/19 00:49:45;;;;;;;6.70;3.65;;;307.90;2304.00;;;;;;5138188;27;20064;-82
2022/05/19 00:52:39;;;;;;;8.77;3.30;;;307.40;2304.00;;;;;;5138789;27;20103;-80
2022/05/19 00:59:08;;;;;;;6.70;3.45;;;282.50;2278.40;;;;;;5157531;27;20114;-78
2022/05/19 01:02:42;;;;;;;8.65;3.80;;;282.50;2278.40;;;;;;5072972;28;20056;-82
2022/05/19 01:47:13;;;;;;;8.70;3.10;;;281.60;2278.40;;;;;;5156630;27;20080;-84
2022/05/19 01:51:01;;;;;;;8.93;3.33;;;256.90;2252.80;;;;;;5072348;28;20182;-83
2022/05/19 01:58:30;;;;;;;11.05;4.78;;;256.90;2252.80;;;;;;5072326;28;20060;-82
2022/05/19 02:05:53;;;;;;;8.05;3.20;;;281.70;2278.40;;;;;;5056351;28;20036;-84
2022/05/19 02:31:11;;;;;;;7.40;2.70;;;256.20;2252.80;;;;;;5156145;27;20144;-84
2022/05/19 02:44:48;;;;;;;7.13;2.72;;;231.20;2252.80;;;;;;4965589;28;20406;-84
2022/05/19 02:48:39;;;;;;;15.20;4.90;;;231.20;2252.80;;;;;;4935381;28;20055;-84
2022/05/19 02:51:52;;;;;;;6.13;2.92;;;231.20;2252.80;;;;;;4934095;29;20040;-84
2022/05/19 02:54:59;;;;;;;5.13;3.27;;;231.00;2252.80;;;;;;4933940;29;20103;-84
2022/05/19 02:58:21;;;;;;;4.93;2.92;;;230.90;2252.80;;;;;;4918175;29;20127;-84
2022/05/19 03:01:17;;;;;;;4.75;2.45;;;230.60;2252.80;;;;;;4840285;29;20117;-84
2022/05/19 03:04:08;;;;;;;6.95;2.70;;;230.50;2252.80;;;;;;4841567;29;20067;-85
2022/05/19 03:06:42;;;;;;;6.70;3.10;;;230.70;2252.80;;;;;;4858877;29;20038;-86
2022/05/19 03:10:04;;;;;;;5.68;2.60;;;230.90;2252.80;;;;;;4858498;29;20030;-85
2022/05/19 03:13:48;;;;;;;6.88;2.85;;;231.00;2252.80;;;;;;4833050;29;20049;-84
2022/05/19 03:17:21;;;;;;;7.78;3.00;;;230.90;2252.80;;;;;;4876762;29;20033;-86
2022/05/19 03:21:03;;;;;;;7.80;3.05;;;231.00;2252.80;;;;;;4788777;29;20062;-83
2022/05/19 03:24:15;;;;;;;7.18;2.80;;;230.90;2252.80;;;;;;4840244;29;20529;-83
2022/05/19 03:27:07;;;;;;;5.03;2.72;;;231.00;2252.80;;;;;;4822216;29;20079;-85
2022/05/19 03:30:18;;;;;;;9.60;2.60;;;230.80;2252.80;;;;;;4816102;29;20042;-85
2022/05/19 03:33:25;;;;;;;5.55;2.80;;;230.90;2252.80;;;;;;4784399;29;20071;-86
2022/05/19 03:36:30;;;;;;;6.38;2.50;;;230.70;2252.80;;;;;;4786962;29;20392;-85
2022/05/19 03:39:08;;;;;;;10.38;3.00;;;230.70;2252.80;;;;;;4772902;30;20116;-86
2022/05/19 03:41:58;;;;;;;7.90;3.05;;;230.90;2252.80;;;;;;4773374;30;20050;-84
2022/05/19 03:45:05;;;;;;;7.07;2.90;;;231.00;2252.80;;;;;;4789894;29;20044;-83
2022/05/19 03:48:21;;;;;;;9.68;3.80;;;230.80;2252.80;;;;;;4753789;30;20044;-84
2022/05/19 04:14:14;;;;;;;11.65;3.53;;;230.90;2252.80;;;;;;4889100;29;20069;-84
2022/05/19 04:17:15;;;;;;;6.35;3.10;;;230.90;2252.80;;;;;;4914293;29;20056;-83
2022/05/19 04:20:10;;;;;;;9.48;3.33;;;230.80;2252.80;;;;;;4916274;29;20059;-78
2022/05/19 04:22:50;;;;;;;8.05;4.00;;;230.70;2252.80;;;;;;4906239;29;20061;-84
2022/05/19 04:25:41;;;;;;;11.32;2.97;;;230.60;2252.80;;;;;;4926411;28;20104;-82
2022/05/19 04:28:22;;;;;;;8.82;2.75;;;230.60;2252.80;;;;;;5026071;28;20034;-83
2022/05/19 04:31:16;;;;;;;7.60;4.03;;;230.70;2252.80;;;;;;5004851;28;20030;-82
2022/05/19 04:34:13;;;;;;;7.63;2.97;;;230.80;2252.80;;;;;;5007318;28;20025;-81
2022/05/19 04:37:09;;;;;;;6.53;2.95;;;230.60;2252.80;;;;;;5013175;28;20053;-84
2022/05/19 04:40:17;;;;;;;9.48;3.13;;;230.80;2252.80;;;;;;5011990;28;20030;-80
2022/05/19 04:43:33;;;;;;;11.70;3.70;;;230.90;2252.80;;;;;;5032159;28;20033;-83
2022/05/19 04:46:48;;;;;;;13.48;4.20;;;231.00;2252.80;;;;;;5019556;28;20030;-84
2022/05/19 04:49:24;;;;;;;8.60;2.90;;;230.90;2252.80;;;;;;5036817;28;20481;-85
2022/05/19 04:52:45;;;;;;;11.02;3.42;;;230.90;2252.80;;;;;;5054298;28;20422;-86
2022/05/19 04:59:20;;;;;;;6.50;3.30;;;231.20;2252.80;;;;;;5107307;28;20088;-85
2022/05/19 05:05:27;;;;;;;;;;;231.20;2252.80;;;;;;5114871;28;20045;-84
2022/05/19 05:12:06;;;;;;;9.65;3.97;;;231.30;2252.80;;;;;;5113789;28;20084;-84
2022/05/19 05:15:26;;;;;;;8.23;3.20;;;256.10;2252.80;;;;;;4996750;28;20116;-83
2022/05/19 05:25:51;;;;;;;11.98;4.00;;;256.60;2252.80;;;;;;5013746;28;20029;-84
2022/05/19 05:35:58;;;;;;;9.73;4.05;;;256.80;2252.80;;;;;;5052586;28;20440;-83
2022/05/19 06:31:26;;;;;;;12.00;3.33;;;358.40;2329.60;;;;;;5134517;27;20026;-83
2022/05/19 06:34:00;;;;;;;10.30;3.67;;;358.50;2329.60;;;;;;5155107;27;20039;-84
2022/05/19 06:36:33;;;;;;;7.55;2.78;;;358.70;2329.60;;;;;;5118370;27;20053;-84
2022/05/19 06:39:00;;;;;;;8.05;3.45;;;358.90;2329.60;;;;;;5098894;27;20032;-83
2022/05/19 06:44:10;;;;;;;8.80;3.40;;;359.30;2329.60;;;;;;5135618;27;20030;-83
2022/05/19 06:46:36;;;;;;;11.75;3.55;;;384.70;2329.60;;;;;;5134974;27;20471;-84
2022/05/19 06:49:04;;;;;;;10.60;3.38;;;384.20;2278.40;;;;;;5116745;28;20084;-84
2022/05/19 06:51:31;;;;;;;11.07;3.55;;;384.40;2252.80;;;;;;5116673;28;20023;-83
2022/05/19 06:53:57;;;;;;;9.30;3.22;;;384.70;2252.80;;;;;;5099927;28;20474;-83
2022/05/19 06:56:23;;;;;;;8.07;4.05;;;384.70;2201.60;;;;;;5117098;27;20029;-84
2022/05/19 06:58:50;;;;;;;7.07;3.13;;;409.70;2227.20;;;;;;5116940;28;20023;-84
2022/05/19 07:01:15;;;;;;;9.30;2.90;;;409.70;2176.00;;;;;;5117080;28;20442;-83
2022/05/19 07:03:41;;;;;;;7.60;2.95;;;409.70;2150.40;;;;;;5117310;28;20083;-84
2022/05/19 07:06:07;;;;;;;7.90;3.00;;;409.80;2150.40;;;;;;5118108;28;20023;-85
2022/05/19 07:08:33;;;;;;;5.68;2.15;;;410.10;2176.00;;;;;;5116676;28;20069;-83
2022/05/19 07:11:00;;;;;;;6.88;2.83;;;410.20;2124.80;;;;;;5135735;28;20026;-83
2022/05/19 07:13:26;;;;;;;11.02;2.88;;;410.10;2073.60;;;;;;5099812;28;20023;-82
2022/05/19 07:15:52;;;;;;;9.07;2.70;;;410.50;2073.60;;;;;;5116913;28;20057;-83
2022/05/19 07:18:18;;;;;;;9.13;3.53;;;410.30;2048.00;;;;;;5117318;27;20063;-83
2022/05/19 07:20:44;;;;;;;5.32;2.53;;;410.30;2048.00;;;;;;5117215;28;20099;-81
2022/05/19 07:23:24;;;;;;;9.18;3.00;;;435.30;2022.40;;;;;;5116315;28;20110;-81
2022/05/19 07:25:51;;;;;;;4.68;2.50;;;435.60;2022.40;;;;;;5116401;28;20466;-82
2022/05/19 07:28:21;;;;;;;8.10;2.85;;;435.90;1996.80;;;;;;5116014;28;20028;-82
2022/05/19 07:30:48;;;;;;;8.75;2.60;;;436.00;1945.60;;;;;;5134417;28;20313;-83
2022/05/19 07:33:15;;;;;;;5.95;2.95;;;436.00;1971.20;;;;;;5117956;27;20029;-80
2022/05/19 07:35:44;;;;;;;8.57;3.35;;;460.90;1996.80;;;;;;5119837;27;20038;-81
2022/05/19 07:38:10;;;;;;;6.57;2.28;;;461.20;1945.60;;;;;;5120576;27;20031;-83
2022/05/19 07:40:35;;;;;;;6.95;2.25;;;461.20;1894.40;;;;;;5138864;27;20050;-84
2022/05/19 07:45:45;;;;;;;13.40;2.60;;;461.20;1945.60;;;;;;5138910;27;20378;-82
2022/05/19 07:48:11;;;;;;;11.02;3.28;;;461.30;1945.60;;;;;;5120051;27;20031;-82
2022/05/19 07:50:37;;;;;;;6.20;3.40;;;461.50;1920.00;;;;;;5120318;27;20114;-82
2022/05/19 07:53:03;;;;;;;6.78;2.95;;;461.30;1920.00;;;;;;5120284;27;20051;-82
2022/05/19 07:55:29;;;;;;;6.38;2.40;;;461.50;1920.00;;;;;;5120462;27;20025;-82
2022/05/19 07:57:56;;;;;;;9.15;3.65;;;461.40;1920.00;;;;;;5120105;27;20027;-81
2022/05/19 08:00:21;;;;;;;9.35;3.10;;;461.40;1920.00;;;;;;5120146;27;20534;-83
2022/05/19 08:02:47;;;;;;;6.53;2.30;;;461.40;1920.00;;;;;;5137503;27;20023;-83
2022/05/19 08:05:13;;;;;;;7.40;2.70;;;486.40;1920.00;;;;;;5119345;27;20072;-79
2022/05/19 08:07:39;;;;;;;5.80;2.35;;;486.70;1894.40;;;;;;5137967;27;20355;-80
2022/05/19 08:10:20;;;;;;;7.15;2.53;;;487.00;1868.80;;;;;;5119234;27;20027;-79
2022/05/19 08:15:34;;;;;;;6.25;2.22;;;512.20;1817.60;;;;;;5137221;27;20073;-79
2022/05/19 08:18:01;;;;;;;8.18;2.30;;;487.10;1792.00;;;;;;5130289;27;20073;-79
2022/05/19 08:20:30;;;;;;;8.93;3.13;;;487.20;1792.00;;;;;;5158503;27;20034;-81
2022/05/19 08:22:56;;;;;;;7.53;3.63;;;487.30;1817.60;;;;;;5139508;27;20023;-79
2022/05/19 08:25:26;;;;;;;8.50;2.33;;;487.30;1792.00;;;;;;5157111;27;20027;-79
2022/05/19 08:27:57;;;;;;;10.98;3.38;;;487.30;1792.00;;;;;;5139710;27;20544;-79
2022/05/19 08:30:23;;;;;;;8.55;2.67;;;487.30;1766.40;;;;;;5139490;27;20110;-78
2022/05/19 08:32:50;;;;;;;6.82;1.67;;;512.20;1740.80;;;;;;5158228;27;20027;-78
2022/05/19 08:35:16;;;;;;;4.93;1.90;;;512.40;1740.80;;;;;;5139688;27;20079;-78
2022/05/19 08:37:42;;;;;;;3.78;2.00;;;512.50;1766.40;;;;;;5157586;27;20025;-77
2022/05/19 08:40:09;;;;;;;6.15;2.05;;;512.60;1664.00;;;;;;5139772;27;20019;-78
2022/05/19 08:42:40;;;;;;;4.13;2.30;;;512.90;1638.40;;;;;;5157738;27;20045;-79
2022/05/19 08:45:16;;;;;;;5.88;3.22;;;512.60;1638.40;;;;;;5155429;27;20019;-78
2022/05/19 08:47:42;;;;;;;7.20;2.08;;;537.70;1664.00;;;;;;5139351;27;20075;-79
2022/05/19 08:50:36;;;;;;;9.27;2.47;;;512.50;1689.60;;;;;;5139481;27;20457;-79
2022/05/19 08:53:02;;;;;;;5.47;2.75;;;537.60;1689.60;;;;;;5139369;27;20022;-80
2022/05/19 08:55:29;;;;;;;8.40;2.60;;;537.80;1689.60;;;;;;5139235;27;20376;-79
2022/05/19 08:58:25;;;;;;;4.80;2.63;;;538.40;1689.60;;;;;;5157159;27;20027;-79
2022/05/19 09:01:28;;;;;;;8.23;2.53;;;563.30;1715.20;;;;;;5145967;27;20043;-77
2022/05/19 09:04:14;;;;;;;4.85;2.30;;;563.60;1689.60;;;;;;5117986;27;20039;-78
2022/05/19 09:09:57;;;;;;;6.07;2.90;;;564.00;1664.00;;;;;;5157211;27;20496;-78
2022/05/19 09:12:23;;;;;;;9.93;3.03;;;563.80;1612.80;;;;;;5138643;27;20066;-78
2022/05/19 09:14:50;;;;;;;8.45;2.50;;;564.00;1587.20;;;;;;5157536;27;20022;-77
2022/05/19 09:17:20;;;;;;;4.90;2.45;;;563.60;1587.20;;;;;;5137189;27;20103;-77
2022/05/19 09:20:02;;;;;;;7.03;2.30;;;563.60;1561.60;;;;;;5138113;27;20031;-77
2022/05/19 09:22:33;;;;;;;8.23;2.40;;;563.90;1612.80;;;;;;5138399;27;20023;-77
2022/05/19 09:25:04;;;;;;;5.97;2.60;;;588.80;1587.20;;;;;;5138436;27;20482;-76
2022/05/19 09:27:30;;;;;;;10.50;2.40;;;564.00;1510.40;;;;;;5156522;27;20027;-77
2022/05/19 09:29:57;;;;;;;6.22;3.22;;;564.10;1536.00;;;;;;5138176;27;20462;-76
2022/05/19 09:32:26;;;;;;;5.75;2.72;;;563.70;1561.60;;;;;;5138092;27;20023;-77
2022/05/19 09:35:01;;;;;;;11.60;5.82;;;563.90;1587.20;;;;;;5138097;27;20033;-76
2022/05/19 09:37:38;;;;;;;5.55;2.97;;;563.80;1484.80;;;;;;5134402;27;20114;-76
2022/05/19 09:40:10;;;;;;;5.63;2.28;;;588.80;1433.60;;;;;;5134324;27;20533;-77
2022/05/19 09:42:55;;;;;;;4.15;1.80;;;589.50;1433.60;;;;;;5135836;27;20023;-77
2022/05/19 09:45:23;;;;;;;4.72;2.25;;;589.50;1356.80;;;;;;5134554;27;20482;-78
2022/05/19 09:47:57;;;;;;;4.03;1.50;;;614.50;1382.40;;;;;;5133783;27;20034;-77
2022/05/19 09:50:29;;;;;;;6.97;2.38;;;589.60;1331.20;;;;;;5135541;27;20023;-76
2022/05/19 09:53:12;;;;;;;6.20;3.78;;;589.70;1356.80;;;;;;5136491;27;20026;-79
2022/05/19 09:55:42;;;;;;;15.10;8.45;;;589.70;1331.20;;;;;;5155896;27;20497;-80
2022/05/19 09:58:19;;;;;;;6.63;3.33;;;614.50;1305.60;;;;;;5138253;27;20038;-82
2022/05/19 10:00:53;;;;;;;4.65;1.60;;;615.20;1305.60;;;;;;5156400;27;20090;-81
2022/05/19 10:03:46;;;;;;;6.28;1.70;;;640.10;1280.00;;;;;;5138301;27;20035;-80
2022/05/19 10:06:18;;;;;;;8.32;3.92;;;640.50;1280.00;;;;;;5142687;27;20035;-82
2022/05/19 10:08:45;;;;;;;9.43;3.97;;;640.80;1305.60;;;;;;5137684;27;20030;-83
2022/05/19 10:11:14;;;;;;;7.53;2.53;;;640.60;1305.60;;;;;;5137954;27;20064;-81
2022/05/19 10:13:47;;;;;;;4.38;2.03;;;665.80;1331.20;;;;;;5137778;27;20019;-83
2022/05/19 10:16:19;;;;;;;4.70;2.10;;;665.60;1254.40;;;;;;5137006;27;20118;-77
2022/05/19 10:19:02;;;;;;;4.75;2.13;;;665.60;1280.00;;;;;;5156211;27;20047;-78
2022/05/19 10:21:31;;;;;;;6.03;2.08;;;640.70;1228.80;;;;;;5137531;27;20051;-78
2022/05/19 10:24:38;;;;;;;7.47;2.05;;;640.90;1254.40;;;;;;5137662;27;20031;-76
2022/05/19 10:33:05;;;;;;;11.13;2.08;;;666.40;1254.40;;;;;;5155728;27;20041;-77
2022/05/19 10:35:49;;;;;;;7.07;2.00;;;691.20;1280.00;;;;;;5155477;27;20026;-78
2022/05/19 10:38:36;;;;;;;3.15;1.50;;;691.40;1305.60;;;;;;5137283;27;20400;-76
2022/05/19 10:41:27;;;;;;;5.88;2.00;;;691.50;1280.00;;;;;;5137197;27;20086;-79
2022/05/19 10:44:22;;;;;;;5.72;2.22;;;691.20;1228.80;;;;;;5155387;27;20105;-79
2022/05/19 10:46:50;;;;;;;3.50;1.73;;;666.50;1254.40;;;;;;5155510;27;20382;-79
2022/05/19 10:49:37;;;;;;;6.00;2.08;;;691.40;1305.60;;;;;;5155733;27;20570;-79
2022/05/19 10:52:28;;;;;;;4.10;1.98;;;691.30;1228.80;;;;;;5136999;27;20034;-79
2022/05/19 10:55:08;;;;;;;5.65;2.70;;;665.80;1254.40;;;;;;5155590;27;20030;-79
2022/05/19 10:58:13;;;;;;;3.30;1.65;;;640.90;1228.80;;;;;;5155632;27;20041;-81
2022/05/19 11:01:03;;;;;;;6.90;2.45;;;640.90;1228.80;;;;;;5138563;27;20050;-83
2022/05/19 11:03:28;;;;;;;4.05;1.60;;;640.90;1228.80;;;;;;5129054;27;20359;-85
2022/05/19 11:06:08;;;;;;;8.85;1.83;;;666.00;1254.40;;;;;;5122857;28;20052;-85
2022/05/19 11:08:59;;;;;;;9.70;2.08;;;666.10;1228.80;;;;;;5120932;27;20066;-82
2022/05/19 11:11:56;;;;;;;9.23;2.38;;;666.20;1228.80;;;;;;5142946;27;20466;-86
2022/05/19 11:14:43;;;;;;;3.75;1.80;;;691.20;1203.20;;;;;;5142061;27;20033;-86
2022/05/19 11:17:43;;;;;;;7.00;2.25;;;691.70;1203.20;;;;;;5140263;27;20099;-85
2022/05/19 11:20:25;;;;;;;5.20;2.40;;;691.50;1203.20;;;;;;5121414;27;20112;-85
2022/05/19 11:23:02;;;;;;;4.90;2.95;;;691.60;1228.80;;;;;;5122252;27;20027;-83
2022/05/19 11:28:40;;;;;;;9.10;5.00;;;691.70;1203.20;;;;;;5140216;27;20091;-84
2022/05/19 11:31:21;;;;;;;12.38;3.05;;;717.00;1280.00;;;;;;5131461;27;20027;-87
2022/05/19 11:33:52;;;;;;;14.90;4.63;;;691.70;1228.80;;;;;;5142467;27;20019;-81
2022/05/19 11:36:54;;;;;;;10.27;6.28;;;691.90;1254.40;;;;;;5135114;27;20019;-80
2022/05/19 11:39:23;;;;;;;5.93;2.23;;;716.80;1254.40;;;;;;5059615;27;20035;-82
2022/05/19 11:41:53;;;;;;;3.80;2.35;;;717.00;1254.40;;;;;;5123914;27;20332;-81
2022/05/19 11:44:27;;;;;;;12.85;8.55;;;691.80;1203.20;;;;;;5123777;27;20049;-81
2022/05/19 11:47:05;;;;;;;11.13;7.15;;;716.80;1254.40;;;;;;5119793;27;20029;-81
2022/05/19 11:56:02;;;;;;;8.85;4.10;;;716.80;1228.80;;;;;;5132779;27;20052;-82
2022/05/19 11:58:31;;;;;;;5.60;3.30;;;692.10;1203.20;;;;;;5125093;27;20479;-80
2022/05/19 12:01:01;;;;;;;4.57;2.70;;;691.80;1228.80;;;;;;5126411;27;20030;-80
2022/05/19 12:03:43;;;;;;;5.00;2.10;;;691.70;1203.20;;;;;;5120445;27;20020;-81
2022/05/19 12:06:12;;;;;;;6.40;3.00;;;691.40;1203.20;;;;;;5119949;27;20054;-81
2022/05/19 12:08:43;;;;;;;9.50;4.22;;;691.50;1228.80;;;;;;5123128;27;20026;-81
2022/05/19 12:11:13;;;;;;;8.75;6.88;;;;;;;;;;5140670;27;20030;-83
2022/05/19 12:13:43;;;;;;;3.67;2.10;;;717.40;1228.80;;;;;;5157810;27;20071;-82
2022/05/19 12:16:15;;;;;;;7.85;4.30;;;717.60;1203.20;;;;;;5141134;27;20023;-83
2022/05/19 12:19:09;;;;;;;10.75;6.93;;;742.80;1280.00;;;;;;5140123;27;20107;-82
2022/05/19 12:21:55;;;;;;;10.23;6.00;;;743.10;1228.80;;;;;;5140338;27;20418;-82
2022/05/19 12:24:45;;;;;;;4.80;2.25;;;742.50;1203.20;;;;;;5140141;27;20031;-84
2022/05/19 12:27:13;;;;;;;8.43;4.78;;;743.20;1177.60;;;;;;5108943;27;20045;-83
2022/05/19 12:30:00;;;;;;;7.13;2.75;;;768.30;1177.60;;;;;;5140866;27;20422;-82
2022/05/19 12:32:35;;;;;;;8.88;5.28;;;768.30;1177.60;;;;;;5158290;27;20029;-82
2022/05/19 12:35:07;;;;;;;13.27;11.98;;;768.30;1152.00;;;;;;5139462;27;20457;-80
2022/05/19 12:37:49;;;;;;;;;;;768.60;1177.60;;;;;;5140014;27;20019;-78
2022/05/19 12:40:51;;;;;;;3.80;2.13;;;768.80;1177.60;;;;;;5158291;27;19947;-78
2022/05/19 12:43:21;;;;;;;7.85;3.53;;;768.90;1152.00;;;;;;5157392;27;20019;-79
2022/05/19 12:46:01;;;;;;;4.95;2.88;;;768.90;1152.00;;;;;;5157985;27;20357;-81
2022/05/19 12:48:33;;;;;;;5.07;2.65;;;793.60;1177.60;;;;;;5140086;27;20035;-79
2022/05/19 12:51:17;;;;;;;;;;;793.60;1203.20;;;;;;5159242;27;20054;-79
2022/05/19 12:53:48;;;;;;;3.10;1.75;;;768.60;1126.40;;;;;;5141022;27;19904;-80
2022/05/19 12:56:42;;;;;;;3.08;1.67;;;768.60;1152.00;;;;;;5138939;27;20059;-80
2022/05/19 12:59:26;;;;;;;4.82;1.80;;;768.50;1152.00;;;;;;5139501;27;20037;-80
2022/05/19 13:02:06;;;;;;;4.18;1.95;;;768.80;1152.00;;;;;;5140866;27;20142;-82
2022/05/19 13:04:50;;;;;;;2.97;1.52;;;768.70;1152.00;;;;;;5139847;27;20030;-80
2022/05/19 13:07:34;;;;;;;6.22;1.83;;;793.60;1177.60;;;;;;5138896;27;20378;-80
2022/05/19 13:10:15;;;;;;;5.30;1.90;;;793.80;1152.00;;;;;;5155765;27;20481;-80
2022/05/19 13:12:59;;;;;;;3.70;1.70;;;768.90;1126.40;;;;;;5138843;27;20034;-80
2022/05/19 13:15:45;;;;;;;6.72;2.17;;;768.40;1177.60;;;;;;5127934;27;20287;-84
2022/05/19 13:18:12;;;;;;;5.53;2.33;;;768.60;1177.60;;;;;;5119312;27;20055;-84
2022/05/19 13:20:40;;;;;;;7.47;3.95;;;768.70;1152.00;;;;;;5119013;27;20023;-84
2022/05/19 13:23:29;;;;;;;11.85;9.10;;;768.90;1177.60;;;;;;5119093;27;20423;-82
2022/05/19 13:26:04;;;;;;;8.68;5.97;;;793.60;1177.60;;;;;;5118719;27;20031;-82
2022/05/19 13:31:24;;;;;;;9.60;5.47;;;768.30;1126.40;;;;;;5136246;27;20057;-88
2022/05/19 13:33:54;;;;;;;8.52;6.13;;;768.80;1152.00;;;;;;5118788;27;20042;-85
2022/05/19 13:36:57;;;;;;;6.97;3.35;;;793.60;1152.00;;;;;;5118788;27;20066;-84
2022/05/19 13:39:23;;;;;;;5.82;4.25;;;793.90;1126.40;;;;;;5118590;27;20023;-85
2022/05/19 13:42:07;;;;;;;5.07;2.40;;;794.30;1152.00;;;;;;5118355;27;20023;-82
2022/05/19 13:44:50;;;;;;;3.40;1.98;;;793.80;1126.40;;;;;;5117666;27;20058;-87
2022/05/19 13:47:26;;;;;;;5.20;2.42;;;768.60;1100.80;;;;;;5136521;27;20023;-83
2022/05/19 13:50:05;;;;;;;8.02;5.20;;;768.60;1126.40;;;;;;5118181;27;20054;-85
2022/05/19 13:52:36;;;;;;;12.27;9.32;;;768.70;1126.40;;;;;;5118228;27;20039;-82
2022/05/19 13:55:03;;;;;;;8.45;6.75;;;768.90;1126.40;;;;;;5118133;27;20109;-85
2022/05/19 13:57:34;;;;;;;5.78;3.30;;;793.80;1152.00;;;;;;5118280;27;20025;-82
2022/05/19 14:00:11;;;;;;;12.25;8.23;;;794.10;1126.40;;;;;;5129189;27;20090;-80
2022/05/19 14:02:40;;;;;;;6.65;3.45;;;793.90;1152.00;;;;;;5134209;27;20470;-83
2022/05/19 14:05:26;;;;;;;6.00;1.73;;;794.00;1152.00;;;;;;5119448;27;20027;-84
2022/05/19 14:07:52;;;;;;;12.43;8.98;;;793.90;1152.00;;;;;;5118062;27;20023;-83
2022/05/19 14:10:24;;;;;;;11.93;8.75;;;793.80;1126.40;;;;;;5117546;27;20027;-82
2022/05/19 14:13:01;;;;;;;7.13;4.55;;;794.00;1126.40;;;;;;5117152;27;20470;-83
2022/05/19 14:15:41;;;;;;;5.82;2.80;;;793.70;1152.00;;;;;;5135595;27;20118;-82
2022/05/19 14:18:14;;;;;;;8.23;3.00;;;768.60;1152.00;;;;;;5118207;27;20114;-82
2022/05/19 14:20:41;;;;;;;9.02;1.83;;;768.40;1126.40;;;;;;5120003;27;20027;-81
2022/05/19 14:23:32;;;;;;;5.88;1.92;;;768.20;1100.80;;;;;;5118832;27;20025;-81
2022/05/19 14:26:00;;;;;;;5.15;2.28;;;768.50;1126.40;;;;;;5118143;27;20538;-82
2022/05/19 14:28:36;;;;;;;4.50;1.73;;;768.50;1126.40;;;;;;5135617;27;20049;-82
2022/05/19 14:31:17;;;;;;;3.55;2.00;;;768.90;1126.40;;;;;;5137310;27;20042;-84
2022/05/19 14:34:06;;;;;;;3.30;1.65;;;793.60;1152.00;;;;;;5117430;27;20040;-84
2022/05/19 14:36:44;;;;;;;4.32;2.50;;;768.40;1126.40;;;;;;5118104;27;20038;-85
2022/05/19 14:39:29;;;;;;;5.32;1.80;;;768.60;1152.00;;;;;;5118062;27;20048;-85
2022/05/19 14:44:50;;;;;;;7.35;1.95;;;793.60;1152.00;;;;;;5136342;27;20026;-85
2022/05/19 14:47:21;;;;;;;12.52;2.03;;;793.60;1152.00;;;;;;5117626;28;20118;-82
2022/05/19 14:50:18;;;;;;;4.18;2.20;;;768.80;1126.40;;;;;;5117738;27;20458;-87
2022/05/19 14:52:48;;;;;;;8.73;2.58;;;768.80;1126.40;;;;;;5112540;27;20079;-84
2022/05/19 14:55:25;;;;;;;23.83;19.58;;;768.80;1126.40;;;;;;5117142;28;20027;-84
2022/05/19 14:57:54;;;;;;;12.82;10.65;;;768.80;1126.40;;;;;;5117691;27;20390;-83
2022/05/19 15:00:22;;;;;;;8.75;2.97;;;768.80;1126.40;;;;;;5123178;27;20034;-84
2022/05/19 15:02:49;;;;;;;5.80;1.80;;;793.60;1152.00;;;;;;5122892;28;20020;-83
2022/05/19 15:05:15;;;;;;;7.40;2.42;;;793.70;1126.40;;;;;;5120109;28;20023;-84
2022/05/19 15:07:44;;;;;;;4.93;2.10;;;793.70;1152.00;;;;;;5117465;28;20525;-86
2022/05/19 15:10:11;;;;;;;5.28;2.28;;;768.70;1152.00;;;;;;5117173;28;20042;-84
2022/05/19 15:12:37;;;;;;;9.07;2.67;;;768.30;1126.40;;;;;;5117014;28;20371;-86
2022/05/19 15:15:03;;;;;;;5.32;1.90;;;768.40;1152.00;;;;;;5117215;28;20084;-83
2022/05/19 15:17:29;;;;;;;4.30;1.85;;;768.10;1152.00;;;;;;5116913;28;20047;-85
2022/05/19 15:19:55;;;;;;;5.13;1.88;;;743.10;1152.00;;;;;;5117192;28;20467;-84
2022/05/19 15:22:21;;;;;;;4.50;1.90;;;743.10;1177.60;;;;;;5117277;28;20027;-85
2022/05/19 15:24:53;;;;;;;8.02;2.53;;;743.10;1152.00;;;;;;5117544;28;20118;-84
2022/05/19 15:27:31;;;;;;;7.55;2.90;;;743.10;1152.00;;;;;;5117395;28;20027;-85
2022/05/19 15:29:57;;;;;;;8.93;2.85;;;743.10;1177.60;;;;;;5117420;28;20454;-85
2022/05/19 15:32:24;;;;;;;6.63;2.58;;;743.00;1177.60;;;;;;5117236;28;20035;-85
2022/05/19 15:34:51;;;;;;;5.38;2.58;;;742.80;1203.20;;;;;;5116936;28;20054;-84
2022/05/19 15:37:17;;;;;;;18.88;15.70;;;742.80;1203.20;;;;;;5117073;28;20490;-82
2022/05/19 15:39:44;;;;;;;11.40;6.38;;;742.80;1203.20;;;;;;5117054;28;20031;-81
2022/05/19 15:42:11;;;;;;;6.47;4.28;;;742.70;1203.20;;;;;;5116536;28;20509;-83
2022/05/19 15:44:38;;;;;;;9.30;3.80;;;742.40;1203.20;;;;;;5116968;28;20118;-83
2022/05/19 15:47:07;;;;;;;4.95;2.63;;;742.80;1203.20;;;;;;5116551;28;20107;-83
2022/05/19 15:49:33;;;;;;;6.00;2.53;;;742.40;1177.60;;;;;;5133527;28;20027;-81
2022/05/19 15:51:59;;;;;;;5.20;2.40;;;742.40;1177.60;;;;;;5116220;28;20043;-79
2022/05/19 15:54:26;;;;;;;6.90;2.20;;;742.40;1203.20;;;;;;5136642;27;20020;-80
2022/05/19 15:56:54;;;;;;;4.88;1.80;;;717.40;1203.20;;;;;;5120522;27;20031;-79
2022/05/19 15:59:20;;;;;;;6.70;2.00;;;716.90;1203.20;;;;;;5121247;27;20470;-81
2022/05/19 16:01:47;;;;;;;10.68;2.13;;;691.90;1203.20;;;;;;5137900;27;20058;-80
2022/05/19 16:04:14;;;;;;;4.57;1.73;;;691.70;1228.80;;;;;;5120259;27;20023;-83
2022/05/19 16:06:40;;;;;;;7.35;2.80;;;691.40;1228.80;;;;;;5120278;27;20049;-82
2022/05/19 16:09:05;;;;;;;7.00;2.95;;;691.30;1254.40;;;;;;5120151;27;20035;-81
2022/05/19 16:11:32;;;;;;;5.78;2.70;;;691.30;1228.80;;;;;;5120053;27;20511;-83
2022/05/19 16:13:59;;;;;;;7.18;4.97;;;691.20;1254.40;;;;;;5120130;27;20369;-83
2022/05/19 16:16:27;;;;;;;7.05;3.40;;;691.20;1254.40;;;;;;5120046;27;20118;-83
2022/05/19 16:18:53;;;;;;;11.07;3.47;;;666.50;1254.40;;;;;;5118853;27;20750;-82
2022/05/19 16:21:21;;;;;;;5.38;2.22;;;666.20;1254.40;;;;;;5119719;27;20030;-81
2022/05/19 16:23:49;;;;;;;3.90;2.08;;;666.20;1254.40;;;;;;5120390;27;20086;-81
2022/05/19 16:26:16;;;;;;;5.47;2.80;;;666.00;1280.00;;;;;;5128462;27;20050;-82
2022/05/19 16:28:42;;;;;;;8.25;4.65;;;665.90;1280.00;;;;;;5144508;27;20147;-79
2022/05/19 16:31:08;;;;;;;7.10;2.90;;;665.80;1305.60;;;;;;5127855;27;20457;-81
2022/05/19 16:33:34;;;;;;;5.72;2.25;;;665.60;1331.20;;;;;;5120640;27;20629;-79
2022/05/19 16:36:00;;;;;;;5.75;2.38;;;640.90;1305.60;;;;;;5119155;27;20083;-82
2022/05/19 16:38:26;;;;;;;4.63;1.90;;;640.70;1305.60;;;;;;5119620;27;20031;-82
2022/05/19 16:40:52;;;;;;;12.70;2.40;;;640.60;1305.60;;;;;;5119588;27;20042;-83
2022/05/19 16:43:19;;;;;;;5.03;1.95;;;640.30;1331.20;;;;;;5119497;27;20031;-81
2022/05/19 16:45:45;;;;;;;5.22;2.00;;;640.20;1331.20;;;;;;5119658;27;20459;-83
2022/05/19 16:48:12;;;;;;;5.82;2.25;;;615.30;1356.80;;;;;;5119391;27;20030;-84
2022/05/19 16:50:39;;;;;;;5.47;1.88;;;615.20;1356.80;;;;;;5119308;27;20066;-82
2022/05/19 16:53:07;;;;;;;5.03;2.13;;;615.00;1382.40;;;;;;5119485;27;20455;-81
2022/05/19 16:58:20;;;;;;;7.85;2.05;;;614.90;1408.00;;;;;;5137493;27;20030;-81
2022/05/19 17:00:50;;;;;;;12.23;2.55;;;615.00;1356.80;;;;;;5118485;27;20027;-81
2022/05/19 17:03:18;;;;;;;9.30;2.60;;;614.80;1408.00;;;;;;5118838;27;20075;-82
2022/05/19 17:05:48;;;;;;;8.20;3.25;;;614.80;1408.00;;;;;;5117833;27;20027;-81
2022/05/19 17:08:15;;;;;;;5.90;2.42;;;614.80;1408.00;;;;;;5118355;27;20031;-79
2022/05/19 17:10:44;;;;;;;5.38;2.42;;;614.90;1382.40;;;;;;5118469;27;20126;-80
2022/05/19 17:13:13;;;;;;;5.55;2.25;;;614.70;1408.00;;;;;;5118342;27;20102;-79
2022/05/19 17:15:39;;;;;;;6.78;2.72;;;614.40;1433.60;;;;;;5118709;27;20113;-78
2022/05/19 17:18:07;;;;;;;6.03;2.65;;;589.60;1459.20;;;;;;5118289;27;20062;-80
2022/05/19 17:20:36;;;;;;;7.78;2.25;;;589.40;1459.20;;;;;;5118419;27;20485;-79
2022/05/19 17:23:02;;;;;;;6.70;3.10;;;;;;;;;;5135496;27;20462;-78
2022/05/19 17:25:30;;;;;;;6.72;2.25;;;589.20;1484.80;;;;;;5118336;27;20413;-80
2022/05/19 17:27:56;;;;;;;6.93;2.50;;;589.10;1510.40;;;;;;5135554;27;20027;-79